sensor_id;sensor_type;location;lat;lon;timestamp;P1;durP1;ratioP1;P2;durP2;ratioP2
20679;SDS011;10499;47.494;7.608;2022-11-14T00:02:06;0.30;;;0.30;;
20679;SDS011;10499;47.494;7.608;2022-11-14T00:05:01;0.30;;;0.30;;
20679;SDS011;10499;47.494;7.608;2022-11-14T00:07:31;0.30;;;0.30;;
20679;SDS011;10499;47.494;7.608;2022-11-14T00:09:56;0.30;;;0.30;;
20679;SDS011;10499;47.494;7.608;2022-11-14T00:12:22;0.30;;;0.30;;
20679;SDS011;10499;47.494;7.608;2022-11-14T00:14:48;0.30;;;0.30;;
20679;SDS011;10499;47.494;7.608;2022-11-14T00:17:13;0.30;;;0.30;;
20679;SDS011;10499;47.494;7.608;2022-11-14T00:19:39;0.30;;;0.30;;
20679;SDS011;10499;47.494;7.608;2022-11-14T00:22:05;0.30;;;0.30;;
20679;SDS011;10499;47.494;7.608;2022-11-14T00:24:30;0.30;;;0.30;;
20679;SDS011;10499;47.494;7.608;2022-11-14T00:26:56;0.30;;;0.30;;
20679;SDS011;10499;47.494;7.608;2022-11-14T00:29:22;0.30;;;0.30;;
20679;SDS011;10499;47.494;7.608;2022-11-14T00:31:47;0.30;;;0.30;;
20679;SDS011;10499;47.494;7.608;2022-11-14T00:34:13;0.30;;;0.30;;
20679;SDS011;10499;47.494;7.608;2022-11-14T00:36:39;0.30;;;0.30;;
20679;SDS011;10499;47.494;7.608;2022-11-14T00:39:12;0.30;;;0.30;;
20679;SDS011;10499;47.494;7.608;2022-11-14T00:41:45;0.30;;;0.30;;
20679;SDS011;10499;47.494;7.608;2022-11-14T00:44:10;0.30;;;0.30;;
20679;SDS011;10499;47.494;7.608;2022-11-14T00:46:36;0.30;;;0.30;;
20679;SDS011;10499;47.494;7.608;2022-11-14T00:49:04;0.30;;;0.30;;
20679;SDS011;10499;47.494;7.608;2022-11-14T00:51:32;0.30;;;0.30;;
20679;SDS011;10499;47.494;7.608;2022-11-14T00:53:58;0.30;;;0.30;;
20679;SDS011;10499;47.494;7.608;2022-11-14T00:56:24;0.30;;;0.30;;
20679;SDS011;10499;47.494;7.608;2022-11-14T00:58:56;0.20;;;0.20;;
20679;SDS011;10499;47.494;7.608;2022-11-14T01:01:41;0.30;;;0.30;;
20679;SDS011;10499;47.494;7.608;2022-11-14T01:04:11;0.30;;;0.30;;
20679;SDS011;10499;47.494;7.608;2022-11-14T01:06:50;0.30;;;0.30;;
20679;SDS011;10499;47.494;7.608;2022-11-14T01:09:25;0.30;;;0.30;;
20679;SDS011;10499;47.494;7.608;2022-11-14T01:12:02;0.30;;;0.30;;
20679;SDS011;10499;47.494;7.608;2022-11-14T01:14:33;0.30;;;0.30;;
20679;SDS011;10499;47.494;7.608;2022-11-14T01:17:07;0.30;;;0.30;;
20679;SDS011;10499;47.494;7.608;2022-11-14T01:19:42;0.30;;;0.30;;
20679;SDS011;10499;47.494;7.608;2022-11-14T01:22:11;0.30;;;0.30;;
20679;SDS011;10499;47.494;7.608;2022-11-14T01:24:59;0.30;;;0.30;;
20679;SDS011;10499;47.494;7.608;2022-11-14T01:27:31;0.30;;;0.30;;
20679;SDS011;10499;47.494;7.608;2022-11-14T01:29:57;0.30;;;0.30;;
20679;SDS011;10499;47.494;7.608;2022-11-14T01:32:24;0.30;;;0.30;;
20679;SDS011;10499;47.494;7.608;2022-11-14T01:34:50;0.20;;;0.20;;
20679;SDS011;10499;47.494;7.608;2022-11-14T01:37:19;0.30;;;0.30;;
20679;SDS011;10499;47.494;7.608;2022-11-14T01:39:51;0.30;;;0.30;;
20679;SDS011;10499;47.494;7.608;2022-11-14T01:42:20;0.30;;;0.30;;
20679;SDS011;10499;47.494;7.608;2022-11-14T01:44:52;0.30;;;0.30;;
20679;SDS011;10499;47.494;7.608;2022-11-14T01:47:22;0.30;;;0.30;;
20679;SDS011;10499;47.494;7.608;2022-11-14T01:49:50;0.30;;;0.30;;
20679;SDS011;10499;47.494;7.608;2022-11-14T01:54:49;0.30;;;0.30;;
20679;SDS011;10499;47.494;7.608;2022-11-14T01:57:26;0.40;;;0.40;;
20679;SDS011;10499;47.494;7.608;2022-11-14T01:59:54;0.30;;;0.30;;
20679;SDS011;10499;47.494;7.608;2022-11-14T02:02:33;0.30;;;0.30;;
20679;SDS011;10499;47.494;7.608;2022-11-14T02:05:22;0.30;;;0.30;;
20679;SDS011;10499;47.494;7.608;2022-11-14T02:07:54;0.30;;;0.30;;
20679;SDS011;10499;47.494;7.608;2022-11-14T02:10:20;0.30;;;0.30;;
20679;SDS011;10499;47.494;7.608;2022-11-14T02:12:46;0.30;;;0.30;;
20679;SDS011;10499;47.494;7.608;2022-11-14T02:15:13;0.30;;;0.30;;
20679;SDS011;10499;47.494;7.608;2022-11-14T02:17:40;0.37;;;0.37;;
20679;SDS011;10499;47.494;7.608;2022-11-14T02:22:36;0.30;;;0.30;;
20679;SDS011;10499;47.494;7.608;2022-11-14T02:27:34;0.30;;;0.30;;
20679;SDS011;10499;47.494;7.608;2022-11-14T02:30:03;0.30;;;0.30;;
20679;SDS011;10499;47.494;7.608;2022-11-14T02:32:29;0.30;;;0.30;;
20679;SDS011;10499;47.494;7.608;2022-11-14T02:34:55;0.30;;;0.30;;
20679;SDS011;10499;47.494;7.608;2022-11-14T02:37:21;0.30;;;0.30;;
20679;SDS011;10499;47.494;7.608;2022-11-14T02:39:46;0.30;;;0.30;;
20679;SDS011;10499;47.494;7.608;2022-11-14T02:42:12;0.30;;;0.30;;
20679;SDS011;10499;47.494;7.608;2022-11-14T02:44:37;0.30;;;0.30;;
20679;SDS011;10499;47.494;7.608;2022-11-14T02:47:03;0.30;;;0.30;;
20679;SDS011;10499;47.494;7.608;2022-11-14T02:49:29;0.30;;;0.30;;
20679;SDS011;10499;47.494;7.608;2022-11-14T02:51:55;0.30;;;0.30;;
20679;SDS011;10499;47.494;7.608;2022-11-14T02:54:20;0.30;;;0.30;;
20679;SDS011;10499;47.494;7.608;2022-11-14T02:56:46;0.30;;;0.30;;
20679;SDS011;10499;47.494;7.608;2022-11-14T02:59:11;0.30;;;0.30;;
20679;SDS011;10499;47.494;7.608;2022-11-14T03:01:37;0.30;;;0.30;;
20679;SDS011;10499;47.494;7.608;2022-11-14T03:04:03;0.30;;;0.30;;
20679;SDS011;10499;47.494;7.608;2022-11-14T03:06:28;0.30;;;0.30;;
20679;SDS011;10499;47.494;7.608;2022-11-14T03:08:54;0.30;;;0.30;;
20679;SDS011;10499;47.494;7.608;2022-11-14T03:11:19;0.30;;;0.30;;
20679;SDS011;10499;47.494;7.608;2022-11-14T03:13:45;0.30;;;0.30;;
20679;SDS011;10499;47.494;7.608;2022-11-14T03:16:11;0.30;;;0.30;;
20679;SDS011;10499;47.494;7.608;2022-11-14T03:18:38;0.30;;;0.30;;
20679;SDS011;10499;47.494;7.608;2022-11-14T03:21:05;0.30;;;0.30;;
20679;SDS011;10499;47.494;7.608;2022-11-14T03:23:35;0.30;;;0.30;;
20679;SDS011;10499;47.494;7.608;2022-11-14T03:26:01;0.30;;;0.30;;
20679;SDS011;10499;47.494;7.608;2022-11-14T03:28:28;0.30;;;0.30;;
20679;SDS011;10499;47.494;7.608;2022-11-14T03:30:54;0.30;;;0.30;;
20679;SDS011;10499;47.494;7.608;2022-11-14T03:33:20;0.30;;;0.30;;
20679;SDS011;10499;47.494;7.608;2022-11-14T03:35:47;0.30;;;0.30;;
20679;SDS011;10499;47.494;7.608;2022-11-14T03:38:15;0.30;;;0.30;;
20679;SDS011;10499;47.494;7.608;2022-11-14T03:40:41;0.30;;;0.30;;
20679;SDS011;10499;47.494;7.608;2022-11-14T03:43:07;0.30;;;0.30;;
20679;SDS011;10499;47.494;7.608;2022-11-14T03:45:33;0.33;;;0.33;;
20679;SDS011;10499;47.494;7.608;2022-11-14T03:48:01;0.30;;;0.30;;
20679;SDS011;10499;47.494;7.608;2022-11-14T03:50:27;0.30;;;0.30;;
20679;SDS011;10499;47.494;7.608;2022-11-14T03:52:52;0.30;;;0.30;;
20679;SDS011;10499;47.494;7.608;2022-11-14T03:55:18;0.30;;;0.30;;
20679;SDS011;10499;47.494;7.608;2022-11-14T03:57:43;0.30;;;0.30;;
20679;SDS011;10499;47.494;7.608;2022-11-14T04:00:09;0.30;;;0.30;;
20679;SDS011;10499;47.494;7.608;2022-11-14T04:02:35;0.30;;;0.30;;
20679;SDS011;10499;47.494;7.608;2022-11-14T04:05:00;0.30;;;0.30;;
20679;SDS011;10499;47.494;7.608;2022-11-14T04:07:26;0.30;;;0.30;;
20679;SDS011;10499;47.494;7.608;2022-11-14T04:09:52;0.30;;;0.30;;
20679;SDS011;10499;47.494;7.608;2022-11-14T04:12:17;0.30;;;0.30;;
20679;SDS011;10499;47.494;7.608;2022-11-14T04:14:43;0.30;;;0.30;;
20679;SDS011;10499;47.494;7.608;2022-11-14T04:17:08;0.30;;;0.30;;
20679;SDS011;10499;47.494;7.608;2022-11-14T04:19:34;0.30;;;0.30;;
20679;SDS011;10499;47.494;7.608;2022-11-14T04:22:00;0.30;;;0.30;;
20679;SDS011;10499;47.494;7.608;2022-11-14T04:24:25;0.30;;;0.30;;
20679;SDS011;10499;47.494;7.608;2022-11-14T04:26:51;0.30;;;0.30;;
20679;SDS011;10499;47.494;7.608;2022-11-14T04:29:17;0.30;;;0.30;;
20679;SDS011;10499;47.494;7.608;2022-11-14T04:31:42;0.30;;;0.30;;
20679;SDS011;10499;47.494;7.608;2022-11-14T04:34:08;0.30;;;0.30;;
20679;SDS011;10499;47.494;7.608;2022-11-14T04:36:33;0.30;;;0.30;;
20679;SDS011;10499;47.494;7.608;2022-11-14T04:38:59;0.30;;;0.30;;
20679;SDS011;10499;47.494;7.608;2022-11-14T04:41:25;0.30;;;0.30;;
20679;SDS011;10499;47.494;7.608;2022-11-14T04:43:50;0.30;;;0.30;;
20679;SDS011;10499;47.494;7.608;2022-11-14T04:46:16;0.30;;;0.30;;
20679;SDS011;10499;47.494;7.608;2022-11-14T04:48:42;0.20;;;0.20;;
20679;SDS011;10499;47.494;7.608;2022-11-14T04:51:07;0.20;;;0.20;;
20679;SDS011;10499;47.494;7.608;2022-11-14T04:53:35;0.30;;;0.30;;
20679;SDS011;10499;47.494;7.608;2022-11-14T04:56:01;0.30;;;0.30;;
20679;SDS011;10499;47.494;7.608;2022-11-14T04:58:26;0.20;;;0.20;;
20679;SDS011;10499;47.494;7.608;2022-11-14T05:00:52;0.30;;;0.30;;
20679;SDS011;10499;47.494;7.608;2022-11-14T05:03:18;0.30;;;0.30;;
20679;SDS011;10499;47.494;7.608;2022-11-14T05:05:43;0.30;;;0.30;;
20679;SDS011;10499;47.494;7.608;2022-11-14T05:08:09;0.30;;;0.30;;
20679;SDS011;10499;47.494;7.608;2022-11-14T05:10:34;0.30;;;0.30;;
20679;SDS011;10499;47.494;7.608;2022-11-14T05:13:00;0.30;;;0.30;;
20679;SDS011;10499;47.494;7.608;2022-11-14T05:15:26;0.20;;;0.20;;
20679;SDS011;10499;47.494;7.608;2022-11-14T05:17:51;0.30;;;0.30;;
20679;SDS011;10499;47.494;7.608;2022-11-14T05:20:17;0.20;;;0.20;;
20679;SDS011;10499;47.494;7.608;2022-11-14T05:22:43;0.27;;;0.27;;
20679;SDS011;10499;47.494;7.608;2022-11-14T05:25:09;0.30;;;0.30;;
20679;SDS011;10499;47.494;7.608;2022-11-14T05:27:35;0.20;;;0.20;;
20679;SDS011;10499;47.494;7.608;2022-11-14T05:30:00;0.30;;;0.30;;
20679;SDS011;10499;47.494;7.608;2022-11-14T05:32:26;0.30;;;0.30;;
20679;SDS011;10499;47.494;7.608;2022-11-14T05:34:52;0.30;;;0.30;;
20679;SDS011;10499;47.494;7.608;2022-11-14T05:37:18;0.30;;;0.30;;
20679;SDS011;10499;47.494;7.608;2022-11-14T05:39:44;0.30;;;0.30;;
20679;SDS011;10499;47.494;7.608;2022-11-14T05:42:09;0.30;;;0.30;;
20679;SDS011;10499;47.494;7.608;2022-11-14T05:44:35;0.30;;;0.30;;
20679;SDS011;10499;47.494;7.608;2022-11-14T05:47:00;0.30;;;0.30;;
20679;SDS011;10499;47.494;7.608;2022-11-14T05:49:26;0.30;;;0.30;;
20679;SDS011;10499;47.494;7.608;2022-11-14T05:51:52;0.30;;;0.30;;
20679;SDS011;10499;47.494;7.608;2022-11-14T05:54:18;0.30;;;0.30;;
20679;SDS011;10499;47.494;7.608;2022-11-14T05:56:44;0.23;;;0.23;;
20679;SDS011;10499;47.494;7.608;2022-11-14T05:59:10;0.30;;;0.30;;
20679;SDS011;10499;47.494;7.608;2022-11-14T06:01:36;0.30;;;0.30;;
20679;SDS011;10499;47.494;7.608;2022-11-14T06:04:04;0.30;;;0.30;;
20679;SDS011;10499;47.494;7.608;2022-11-14T06:06:30;0.20;;;0.20;;
20679;SDS011;10499;47.494;7.608;2022-11-14T06:08:56;0.30;;;0.30;;
20679;SDS011;10499;47.494;7.608;2022-11-14T06:11:22;0.30;;;0.30;;
20679;SDS011;10499;47.494;7.608;2022-11-14T06:13:48;0.30;;;0.30;;
20679;SDS011;10499;47.494;7.608;2022-11-14T06:16:15;0.30;;;0.30;;
20679;SDS011;10499;47.494;7.608;2022-11-14T06:18:42;0.30;;;0.30;;
20679;SDS011;10499;47.494;7.608;2022-11-14T06:21:12;0.27;;;0.27;;
20679;SDS011;10499;47.494;7.608;2022-11-14T06:23:38;0.20;;;0.20;;
20679;SDS011;10499;47.494;7.608;2022-11-14T06:26:05;0.20;;;0.20;;
20679;SDS011;10499;47.494;7.608;2022-11-14T06:28:36;0.30;;;0.30;;
20679;SDS011;10499;47.494;7.608;2022-11-14T06:31:02;0.23;;;0.23;;
20679;SDS011;10499;47.494;7.608;2022-11-14T06:33:29;0.30;;;0.30;;
20679;SDS011;10499;47.494;7.608;2022-11-14T06:35:59;0.30;;;0.30;;
20679;SDS011;10499;47.494;7.608;2022-11-14T06:38:25;0.27;;;0.27;;
20679;SDS011;10499;47.494;7.608;2022-11-14T06:40:52;0.20;;;0.20;;
20679;SDS011;10499;47.494;7.608;2022-11-14T06:43:24;0.20;;;0.20;;
20679;SDS011;10499;47.494;7.608;2022-11-14T06:45:52;0.30;;;0.30;;
20679;SDS011;10499;47.494;7.608;2022-11-14T06:48:18;0.30;;;0.30;;
20679;SDS011;10499;47.494;7.608;2022-11-14T06:50:49;0.30;;;0.30;;
20679;SDS011;10499;47.494;7.608;2022-11-14T06:53:16;0.20;;;0.20;;
20679;SDS011;10499;47.494;7.608;2022-11-14T06:55:42;0.30;;;0.30;;
20679;SDS011;10499;47.494;7.608;2022-11-14T06:58:07;0.20;;;0.20;;
20679;SDS011;10499;47.494;7.608;2022-11-14T07:00:33;0.30;;;0.30;;
20679;SDS011;10499;47.494;7.608;2022-11-14T07:02:59;0.20;;;0.20;;
20679;SDS011;10499;47.494;7.608;2022-11-14T07:05:25;0.30;;;0.30;;
20679;SDS011;10499;47.494;7.608;2022-11-14T07:07:51;0.30;;;0.30;;
20679;SDS011;10499;47.494;7.608;2022-11-14T07:10:17;0.20;;;0.20;;
20679;SDS011;10499;47.494;7.608;2022-11-14T07:12:43;0.30;;;0.30;;
20679;SDS011;10499;47.494;7.608;2022-11-14T07:15:08;0.20;;;0.20;;
20679;SDS011;10499;47.494;7.608;2022-11-14T07:17:37;0.20;;;0.20;;
20679;SDS011;10499;47.494;7.608;2022-11-14T07:20:06;0.30;;;0.30;;
20679;SDS011;10499;47.494;7.608;2022-11-14T07:22:32;0.20;;;0.20;;
20679;SDS011;10499;47.494;7.608;2022-11-14T07:24:57;0.30;;;0.30;;
20679;SDS011;10499;47.494;7.608;2022-11-14T07:27:23;0.20;;;0.20;;
20679;SDS011;10499;47.494;7.608;2022-11-14T07:29:48;0.30;;;0.30;;
20679;SDS011;10499;47.494;7.608;2022-11-14T07:32:14;0.30;;;0.30;;
20679;SDS011;10499;47.494;7.608;2022-11-14T07:34:40;0.20;;;0.20;;
20679;SDS011;10499;47.494;7.608;2022-11-14T07:37:05;0.30;;;0.30;;
20679;SDS011;10499;47.494;7.608;2022-11-14T07:39:31;0.30;;;0.30;;
20679;SDS011;10499;47.494;7.608;2022-11-14T07:41:56;0.20;;;0.20;;
20679;SDS011;10499;47.494;7.608;2022-11-14T07:44:22;0.20;;;0.20;;
20679;SDS011;10499;47.494;7.608;2022-11-14T07:46:48;0.20;;;0.20;;
20679;SDS011;10499;47.494;7.608;2022-11-14T07:49:14;0.30;;;0.30;;
20679;SDS011;10499;47.494;7.608;2022-11-14T07:51:40;0.20;;;0.20;;
20679;SDS011;10499;47.494;7.608;2022-11-14T07:54:05;0.20;;;0.20;;
20679;SDS011;10499;47.494;7.608;2022-11-14T07:56:34;0.20;;;0.20;;
20679;SDS011;10499;47.494;7.608;2022-11-14T07:58:59;0.30;;;0.30;;
20679;SDS011;10499;47.494;7.608;2022-11-14T08:01:25;0.20;;;0.20;;
20679;SDS011;10499;47.494;7.608;2022-11-14T08:03:50;0.30;;;0.30;;
20679;SDS011;10499;47.494;7.608;2022-11-14T08:06:16;0.20;;;0.20;;
20679;SDS011;10499;47.494;7.608;2022-11-14T08:08:42;0.20;;;0.20;;
20679;SDS011;10499;47.494;7.608;2022-11-14T08:11:08;0.20;;;0.20;;
20679;SDS011;10499;47.494;7.608;2022-11-14T08:13:34;0.30;;;0.30;;
20679;SDS011;10499;47.494;7.608;2022-11-14T08:16:06;0.20;;;0.20;;
20679;SDS011;10499;47.494;7.608;2022-11-14T08:18:34;0.20;;;0.20;;
20679;SDS011;10499;47.494;7.608;2022-11-14T08:21:02;0.30;;;0.30;;
20679;SDS011;10499;47.494;7.608;2022-11-14T08:23:28;0.20;;;0.20;;
20679;SDS011;10499;47.494;7.608;2022-11-14T08:25:54;0.20;;;0.20;;
20679;SDS011;10499;47.494;7.608;2022-11-14T08:28:21;0.20;;;0.20;;
20679;SDS011;10499;47.494;7.608;2022-11-14T08:30:47;0.30;;;0.30;;
20679;SDS011;10499;47.494;7.608;2022-11-14T08:33:13;0.20;;;0.20;;
20679;SDS011;10499;47.494;7.608;2022-11-14T08:35:38;0.20;;;0.20;;
20679;SDS011;10499;47.494;7.608;2022-11-14T08:38:04;0.30;;;0.30;;
20679;SDS011;10499;47.494;7.608;2022-11-14T08:40:29;0.20;;;0.20;;
20679;SDS011;10499;47.494;7.608;2022-11-14T08:42:59;0.20;;;0.20;;
20679;SDS011;10499;47.494;7.608;2022-11-14T08:45:27;0.30;;;0.30;;
20679;SDS011;10499;47.494;7.608;2022-11-14T08:47:53;0.30;;;0.30;;
20679;SDS011;10499;47.494;7.608;2022-11-14T08:50:19;0.20;;;0.20;;
20679;SDS011;10499;47.494;7.608;2022-11-14T08:52:49;0.20;;;0.20;;
20679;SDS011;10499;47.494;7.608;2022-11-14T08:55:16;0.20;;;0.20;;
20679;SDS011;10499;47.494;7.608;2022-11-14T08:57:42;0.20;;;0.20;;
20679;SDS011;10499;47.494;7.608;2022-11-14T09:00:07;0.20;;;0.20;;
20679;SDS011;10499;47.494;7.608;2022-11-14T09:02:33;0.20;;;0.20;;
20679;SDS011;10499;47.494;7.608;2022-11-14T09:04:59;0.20;;;0.20;;
20679;SDS011;10499;47.494;7.608;2022-11-14T09:07:25;0.20;;;0.20;;
20679;SDS011;10499;47.494;7.608;2022-11-14T09:09:50;0.20;;;0.20;;
20679;SDS011;10499;47.494;7.608;2022-11-14T09:12:16;0.20;;;0.20;;
20679;SDS011;10499;47.494;7.608;2022-11-14T09:14:42;0.30;;;0.30;;
20679;SDS011;10499;47.494;7.608;2022-11-14T09:17:07;0.20;;;0.20;;
20679;SDS011;10499;47.494;7.608;2022-11-14T09:19:33;0.20;;;0.20;;
20679;SDS011;10499;47.494;7.608;2022-11-14T09:21:58;0.20;;;0.20;;
20679;SDS011;10499;47.494;7.608;2022-11-14T09:24:24;0.20;;;0.20;;
20679;SDS011;10499;47.494;7.608;2022-11-14T09:26:50;0.20;;;0.20;;
20679;SDS011;10499;47.494;7.608;2022-11-14T09:29:16;0.20;;;0.20;;
20679;SDS011;10499;47.494;7.608;2022-11-14T09:31:43;0.20;;;0.20;;
20679;SDS011;10499;47.494;7.608;2022-11-14T09:34:09;0.20;;;0.20;;
20679;SDS011;10499;47.494;7.608;2022-11-14T09:36:34;0.20;;;0.20;;
20679;SDS011;10499;47.494;7.608;2022-11-14T09:39:00;0.20;;;0.20;;
20679;SDS011;10499;47.494;7.608;2022-11-14T09:41:46;0.20;;;0.20;;
20679;SDS011;10499;47.494;7.608;2022-11-14T09:44:56;0.20;;;0.20;;
20679;SDS011;10499;47.494;7.608;2022-11-14T09:47:42;0.20;;;0.20;;
20679;SDS011;10499;47.494;7.608;2022-11-14T09:50:19;0.20;;;0.20;;
20679;SDS011;10499;47.494;7.608;2022-11-14T09:52:56;0.20;;;0.20;;
20679;SDS011;10499;47.494;7.608;2022-11-14T09:55:40;0.20;;;0.20;;
20679;SDS011;10499;47.494;7.608;2022-11-14T09:58:14;0.20;;;0.20;;
20679;SDS011;10499;47.494;7.608;2022-11-14T10:00:46;0.20;;;0.20;;
20679;SDS011;10499;47.494;7.608;2022-11-14T10:11:31;0.20;;;0.20;;
20679;SDS011;10499;47.494;7.608;2022-11-14T10:16:44;0.20;;;0.20;;
20679;SDS011;10499;47.494;7.608;2022-11-14T10:19:40;0.20;;;0.20;;
20679;SDS011;10499;47.494;7.608;2022-11-14T10:22:15;0.20;;;0.20;;
20679;SDS011;10499;47.494;7.608;2022-11-14T10:27:30;0.20;;;0.20;;
20679;SDS011;10499;47.494;7.608;2022-11-14T10:35:41;0.20;;;0.20;;
20679;SDS011;10499;47.494;7.608;2022-11-14T10:38:25;0.10;;;0.10;;
20679;SDS011;10499;47.494;7.608;2022-11-14T10:41:03;0.10;;;0.10;;
20679;SDS011;10499;47.494;7.608;2022-11-14T10:43:41;0.15;;;0.15;;
20679;SDS011;10499;47.494;7.608;2022-11-14T10:46:29;0.20;;;0.20;;
20679;SDS011;10499;47.494;7.608;2022-11-14T10:49:00;0.20;;;0.20;;
20679;SDS011;10499;47.494;7.608;2022-11-14T10:51:37;0.20;;;0.20;;
20679;SDS011;10499;47.494;7.608;2022-11-14T10:56:34;0.20;;;0.20;;
20679;SDS011;10499;47.494;7.608;2022-11-14T10:59:12;0.20;;;0.20;;
20679;SDS011;10499;47.494;7.608;2022-11-14T11:01:42;0.20;;;0.20;;
20679;SDS011;10499;47.494;7.608;2022-11-14T11:06:46;0.20;;;0.20;;
20679;SDS011;10499;47.494;7.608;2022-11-14T11:09:18;0.17;;;0.17;;
20679;SDS011;10499;47.494;7.608;2022-11-14T11:12:04;0.10;;;0.10;;
20679;SDS011;10499;47.494;7.608;2022-11-14T11:14:30;0.20;;;0.20;;
20679;SDS011;10499;47.494;7.608;2022-11-14T11:19:35;0.20;;;0.20;;
20679;SDS011;10499;47.494;7.608;2022-11-14T11:22:02;0.20;;;0.20;;
20679;SDS011;10499;47.494;7.608;2022-11-14T11:27:12;0.20;;;0.20;;
20679;SDS011;10499;47.494;7.608;2022-11-14T11:32:43;0.20;;;0.20;;
20679;SDS011;10499;47.494;7.608;2022-11-14T11:35:13;0.20;;;0.20;;
20679;SDS011;10499;47.494;7.608;2022-11-14T11:37:50;0.20;;;0.20;;
20679;SDS011;10499;47.494;7.608;2022-11-14T11:40:21;0.20;;;0.20;;
20679;SDS011;10499;47.494;7.608;2022-11-14T11:42:56;0.20;;;0.20;;
20679;SDS011;10499;47.494;7.608;2022-11-14T11:45:28;0.20;;;0.20;;
20679;SDS011;10499;47.494;7.608;2022-11-14T11:48:01;0.20;;;0.20;;
20679;SDS011;10499;47.494;7.608;2022-11-14T11:50:32;0.20;;;0.20;;
20679;SDS011;10499;47.494;7.608;2022-11-14T11:55:50;0.20;;;0.20;;
20679;SDS011;10499;47.494;7.608;2022-11-14T11:58:42;0.20;;;0.20;;
20679;SDS011;10499;47.494;7.608;2022-11-14T12:01:11;0.20;;;0.20;;
20679;SDS011;10499;47.494;7.608;2022-11-14T12:03:38;0.20;;;0.20;;
20679;SDS011;10499;47.494;7.608;2022-11-14T12:31:17;0.20;;;0.20;;
20679;SDS011;10499;47.494;7.608;2022-11-14T12:33:44;0.20;;;0.20;;
20679;SDS011;10499;47.494;7.608;2022-11-14T12:36:17;0.10;;;0.10;;
20679;SDS011;10499;47.494;7.608;2022-11-14T12:42:29;0.20;;;0.20;;
20679;SDS011;10499;47.494;7.608;2022-11-14T12:44:55;0.20;;;0.20;;
20679;SDS011;10499;47.494;7.608;2022-11-14T12:47:24;0.20;;;0.20;;
20679;SDS011;10499;47.494;7.608;2022-11-14T13:03:28;0.20;;;0.20;;
20679;SDS011;10499;47.494;7.608;2022-11-14T13:06:06;0.20;;;0.20;;
20679;SDS011;10499;47.494;7.608;2022-11-14T13:14:29;0.20;;;0.20;;
20679;SDS011;10499;47.494;7.608;2022-11-14T13:20:06;0.20;;;0.20;;
20679;SDS011;10499;47.494;7.608;2022-11-14T13:33:39;0.20;;;0.20;;
20679;SDS011;10499;47.494;7.608;2022-11-14T13:36:05;0.20;;;0.20;;
20679;SDS011;10499;47.494;7.608;2022-11-14T13:47:24;0.20;;;0.20;;
20679;SDS011;10499;47.494;7.608;2022-11-14T13:50:31;0.20;;;0.20;;
20679;SDS011;10499;47.494;7.608;2022-11-14T13:53:01;0.20;;;0.20;;
20679;SDS011;10499;47.494;7.608;2022-11-14T14:06:33;0.20;;;0.20;;
20679;SDS011;10499;47.494;7.608;2022-11-14T14:09:12;0.20;;;0.20;;
20679;SDS011;10499;47.494;7.608;2022-11-14T14:22:58;0.20;;;0.20;;
20679;SDS011;10499;47.494;7.608;2022-11-14T14:25:51;0.20;;;0.20;;
20679;SDS011;10499;47.494;7.608;2022-11-14T14:28:34;0.20;;;0.20;;
20679;SDS011;10499;47.494;7.608;2022-11-14T14:31:14;0.20;;;0.20;;
20679;SDS011;10499;47.494;7.608;2022-11-14T14:33:47;0.20;;;0.20;;
20679;SDS011;10499;47.494;7.608;2022-11-14T14:36:25;0.20;;;0.20;;
20679;SDS011;10499;47.494;7.608;2022-11-14T14:39:10;0.20;;;0.20;;
20679;SDS011;10499;47.494;7.608;2022-11-14T14:41:41;0.20;;;0.20;;
20679;SDS011;10499;47.494;7.608;2022-11-14T14:44:40;0.20;;;0.20;;
20679;SDS011;10499;47.494;7.608;2022-11-14T14:47:24;0.20;;;0.20;;
20679;SDS011;10499;47.494;7.608;2022-11-14T14:49:58;0.20;;;0.20;;
20679;SDS011;10499;47.494;7.608;2022-11-14T14:52:30;0.20;;;0.20;;
20679;SDS011;10499;47.494;7.608;2022-11-14T14:54:59;0.20;;;0.20;;
20679;SDS011;10499;47.494;7.608;2022-11-14T14:57:27;0.20;;;0.20;;
20679;SDS011;10499;47.494;7.608;2022-11-14T15:00:00;0.20;;;0.20;;
20679;SDS011;10499;47.494;7.608;2022-11-14T15:02:31;0.20;;;0.20;;
20679;SDS011;10499;47.494;7.608;2022-11-14T15:04:58;0.20;;;0.20;;
20679;SDS011;10499;47.494;7.608;2022-11-14T15:07:25;0.20;;;0.20;;
20679;SDS011;10499;47.494;7.608;2022-11-14T15:10:02;0.20;;;0.20;;
20679;SDS011;10499;47.494;7.608;2022-11-14T15:12:29;0.20;;;0.20;;
20679;SDS011;10499;47.494;7.608;2022-11-14T15:14:56;0.20;;;0.20;;
20679;SDS011;10499;47.494;7.608;2022-11-14T15:17:23;0.20;;;0.20;;
20679;SDS011;10499;47.494;7.608;2022-11-14T15:19:51;0.20;;;0.20;;
20679;SDS011;10499;47.494;7.608;2022-11-14T15:24:43;0.20;;;0.20;;
20679;SDS011;10499;47.494;7.608;2022-11-14T15:27:27;0.20;;;0.20;;
20679;SDS011;10499;47.494;7.608;2022-11-14T15:30:00;0.20;;;0.20;;
20679;SDS011;10499;47.494;7.608;2022-11-14T15:32:27;0.20;;;0.20;;
20679;SDS011;10499;47.494;7.608;2022-11-14T15:38:00;0.20;;;0.20;;
20679;SDS011;10499;47.494;7.608;2022-11-14T15:40:30;0.20;;;0.20;;
20679;SDS011;10499;47.494;7.608;2022-11-14T15:42:57;0.20;;;0.20;;
20679;SDS011;10499;47.494;7.608;2022-11-14T15:45:25;0.20;;;0.20;;
20679;SDS011;10499;47.494;7.608;2022-11-14T15:48:05;0.20;;;0.20;;
20679;SDS011;10499;47.494;7.608;2022-11-14T15:50:38;0.20;;;0.20;;
20679;SDS011;10499;47.494;7.608;2022-11-14T15:53:20;0.20;;;0.20;;
20679;SDS011;10499;47.494;7.608;2022-11-14T15:55:48;0.20;;;0.20;;
20679;SDS011;10499;47.494;7.608;2022-11-14T15:58:13;0.20;;;0.20;;
20679;SDS011;10499;47.494;7.608;2022-11-14T16:00:42;0.13;;;0.13;;
20679;SDS011;10499;47.494;7.608;2022-11-14T16:03:11;0.20;;;0.20;;
20679;SDS011;10499;47.494;7.608;2022-11-14T16:05:41;0.20;;;0.20;;
20679;SDS011;10499;47.494;7.608;2022-11-14T16:08:08;0.20;;;0.20;;
20679;SDS011;10499;47.494;7.608;2022-11-14T16:10:35;0.20;;;0.20;;
20679;SDS011;10499;47.494;7.608;2022-11-14T16:13:00;0.20;;;0.20;;
20679;SDS011;10499;47.494;7.608;2022-11-14T16:15:26;0.20;;;0.20;;
20679;SDS011;10499;47.494;7.608;2022-11-14T16:17:52;0.20;;;0.20;;
20679;SDS011;10499;47.494;7.608;2022-11-14T16:22:45;0.20;;;0.20;;
20679;SDS011;10499;47.494;7.608;2022-11-14T16:25:19;0.20;;;0.20;;
20679;SDS011;10499;47.494;7.608;2022-11-14T16:27:46;0.20;;;0.20;;
20679;SDS011;10499;47.494;7.608;2022-11-14T16:30:13;0.20;;;0.20;;
20679;SDS011;10499;47.494;7.608;2022-11-14T16:32:40;0.20;;;0.20;;
20679;SDS011;10499;47.494;7.608;2022-11-14T16:35:14;0.20;;;0.20;;
20679;SDS011;10499;47.494;7.608;2022-11-14T16:37:42;0.20;;;0.20;;
20679;SDS011;10499;47.494;7.608;2022-11-14T16:40:15;0.20;;;0.20;;
20679;SDS011;10499;47.494;7.608;2022-11-14T16:42:43;0.20;;;0.20;;
20679;SDS011;10499;47.494;7.608;2022-11-14T16:45:09;0.20;;;0.20;;
20679;SDS011;10499;47.494;7.608;2022-11-14T16:47:35;0.10;;;0.10;;
20679;SDS011;10499;47.494;7.608;2022-11-14T16:50:20;0.20;;;0.20;;
20679;SDS011;10499;47.494;7.608;2022-11-14T16:52:45;0.20;;;0.20;;
20679;SDS011;10499;47.494;7.608;2022-11-14T16:55:11;0.20;;;0.20;;
20679;SDS011;10499;47.494;7.608;2022-11-14T16:57:37;0.20;;;0.20;;
20679;SDS011;10499;47.494;7.608;2022-11-14T17:00:07;0.20;;;0.20;;
20679;SDS011;10499;47.494;7.608;2022-11-14T17:02:35;0.10;;;0.10;;
20679;SDS011;10499;47.494;7.608;2022-11-14T17:05:01;0.17;;;0.17;;
20679;SDS011;10499;47.494;7.608;2022-11-14T17:07:27;0.20;;;0.20;;
20679;SDS011;10499;47.494;7.608;2022-11-14T17:09:57;0.20;;;0.20;;
20679;SDS011;10499;47.494;7.608;2022-11-14T17:12:24;0.20;;;0.20;;
20679;SDS011;10499;47.494;7.608;2022-11-14T17:14:50;0.20;;;0.20;;
20679;SDS011;10499;47.494;7.608;2022-11-14T17:17:16;0.15;;;0.15;;
20679;SDS011;10499;47.494;7.608;2022-11-14T17:19:41;0.15;;;0.15;;
20679;SDS011;10499;47.494;7.608;2022-11-14T17:22:13;0.13;;;0.13;;
20679;SDS011;10499;47.494;7.608;2022-11-14T17:24:40;0.20;;;0.20;;